Time;durP1;ratioP1;P1;durP2;ratioP2;P2;SDS_P1;SDS_P2;PMS_P1;PMS_P2;Temp;Humidity;BMP_temperature;BMP_pressure;BME280_temperature;BME280_humidity;BME280_pressure;Samples;Min_cycle;Max_cycle;Signal;HPM_P1;HPM_P2
2021/05/16 00:01:25;;;;;;;1.70;0.90;;;9.60;99.90;;;;;;5088762;28;20655;-84
2021/05/16 00:03:52;;;;;;;1.10;0.85;;;9.60;99.90;;;;;;5095236;28;20228;-83
2021/05/16 00:06:18;;;;;;;1.40;0.98;;;9.60;99.90;;;;;;5086989;28;20204;-83
2021/05/16 00:08:46;;;;;;;1.30;1.20;;;9.60;99.90;;;;;;5087980;28;20202;-83
2021/05/16 00:11:12;;;;;;;2.63;1.42;;;9.70;99.90;;;;;;5096990;28;20221;-83
2021/05/16 00:13:39;;;;;;;1.20;1.10;;;9.70;99.90;;;;;;5088148;28;20299;-84
2021/05/16 00:16:06;;;;;;;0.98;0.95;;;9.70;99.90;;;;;;5093105;28;20199;-84
2021/05/16 00:18:33;;;;;;;1.30;1.05;;;9.70;99.90;;;;;;5087978;28;20209;-84
2021/05/16 00:20:59;;;;;;;0.80;0.80;;;9.70;99.90;;;;;;5097359;28;20205;-84
2021/05/16 00:23:25;;;;;;;1.27;1.05;;;9.70;99.90;;;;;;5096426;28;20224;-84
2021/05/16 00:25:52;;;;;;;1.63;1.02;;;9.70;99.90;;;;;;5085819;28;20193;-85
2021/05/16 00:28:18;;;;;;;1.65;1.10;;;9.80;99.90;;;;;;5096659;28;20218;-84
2021/05/16 00:30:44;;;;;;;1.50;1.38;;;9.80;99.90;;;;;;5092542;28;20205;-84
2021/05/16 00:33:11;;;;;;;1.70;1.10;;;9.90;99.90;;;;;;5097710;28;20218;-84
2021/05/16 00:35:40;;;;;;;1.15;1.05;;;9.90;99.90;;;;;;5099019;28;20221;-84
2021/05/16 00:38:06;;;;;;;2.60;1.50;;;10.00;99.90;;;;;;5091807;28;20196;-83
2021/05/16 00:40:34;;;;;;;1.77;1.67;;;10.00;99.90;;;;;;5084679;28;20209;-84
2021/05/16 00:43:02;;;;;;;1.83;1.73;;;10.00;99.90;;;;;;5101535;28;20208;-84
2021/05/16 00:45:29;;;;;;;1.80;0.90;;;10.00;99.90;;;;;;5091173;28;20198;-85
2021/05/16 00:47:57;;;;;;;1.67;1.00;;;10.00;99.90;;;;;;5085400;28;20226;-85
2021/05/16 00:50:26;;;;;;;2.10;1.00;;;10.10;99.90;;;;;;5082228;28;20236;-84
2021/05/16 00:52:52;;;;;;;1.05;1.05;;;10.10;99.90;;;;;;5081692;28;20302;-84
2021/05/16 00:55:20;;;;;;;3.15;1.00;;;10.20;99.90;;;;;;5080702;28;20221;-85
2021/05/16 00:57:47;;;;;;;1.38;1.00;;;10.20;99.90;;;;;;5081681;28;20206;-84
2021/05/16 01:00:15;;;;;;;2.85;1.13;;;10.20;99.90;;;;;;5081684;28;20686;-84
2021/05/16 01:02:42;;;;;;;1.17;1.00;;;10.20;99.90;;;;;;5081777;28;20662;-82
2021/05/16 01:05:11;;;;;;;1.40;1.30;;;10.20;99.90;;;;;;5081685;28;20710;-84
2021/05/16 01:07:39;;;;;;;2.92;1.55;;;10.20;99.90;;;;;;5080873;28;20464;-83
2021/05/16 01:10:09;;;;;;;1.23;1.10;;;10.10;99.90;;;;;;5080719;28;20220;-84
2021/05/16 01:12:41;;;;;;;1.42;1.00;;;10.20;99.90;;;;;;5082563;28;20215;-84
2021/05/16 01:15:09;;;;;;;1.77;1.13;;;10.20;99.90;;;;;;5081888;28;20240;-84
2021/05/16 01:17:36;;;;;;;2.63;1.10;;;10.30;99.90;;;;;;5082087;28;20211;-84
2021/05/16 01:20:05;;;;;;;1.50;1.40;;;10.30;99.90;;;;;;5081310;28;20217;-84
2021/05/16 01:22:32;;;;;;;2.60;1.20;;;10.30;99.90;;;;;;5081665;28;20583;-84
2021/05/16 01:24:58;;;;;;;1.75;1.45;;;10.30;99.90;;;;;;5081626;28;20500;-84
2021/05/16 01:27:24;;;;;;;1.47;1.37;;;10.20;99.90;;;;;;5081589;28;20209;-85
2021/05/16 01:29:51;;;;;;;2.05;1.15;;;10.20;99.90;;;;;;5084467;28;20464;-83
2021/05/16 01:32:21;;;;;;;1.92;1.25;;;10.20;99.90;;;;;;5083976;28;20263;-84
2021/05/16 01:34:47;;;;;;;1.10;1.10;;;10.20;99.90;;;;;;5083640;28;20226;-83
2021/05/16 01:37:17;;;;;;;1.23;1.15;;;10.30;99.90;;;;;;5080968;28;20210;-83
2021/05/16 01:39:47;;;;;;;1.60;1.40;;;10.30;99.90;;;;;;5081769;28;20235;-83
2021/05/16 01:42:14;;;;;;;2.40;1.63;;;10.30;99.90;;;;;;5081045;28;20207;-84
2021/05/16 01:44:40;;;;;;;1.50;1.20;;;10.30;99.90;;;;;;5081346;28;20235;-84
2021/05/16 01:47:06;;;;;;;3.13;1.60;;;10.20;99.90;;;;;;5082477;28;20217;-86
2021/05/16 01:49:42;;;;;;;1.10;1.00;;;10.10;99.90;;;;;;5081530;28;20232;-85
2021/05/16 01:52:10;;;;;;;2.20;2.00;;;10.10;99.90;;;;;;5080898;28;20298;-84
2021/05/16 01:54:37;;;;;;;2.25;1.80;;;10.10;99.90;;;;;;5079982;28;20229;-82
2021/05/16 01:57:05;;;;;;;1.77;1.67;;;10.10;99.90;;;;;;5078246;28;20206;-83
2021/05/16 01:59:33;;;;;;;1.80;1.70;;;10.00;99.90;;;;;;5079638;28;20672;-83
2021/05/16 02:02:00;;;;;;;1.55;1.52;;;10.00;99.90;;;;;;5078922;28;20207;-83
2021/05/16 02:04:27;;;;;;;1.88;1.77;;;10.00;99.90;;;;;;5078632;28;20323;-83
2021/05/16 02:06:54;;;;;;;2.03;1.40;;;9.90;99.90;;;;;;5078147;28;20211;-83
2021/05/16 02:09:20;;;;;;;2.08;1.80;;;9.80;99.90;;;;;;5077793;28;20624;-83
2021/05/16 02:11:47;;;;;;;4.00;1.60;;;9.80;99.90;;;;;;5078666;28;20213;-84
2021/05/16 02:14:23;;;;;;;3.65;1.23;;;9.80;99.90;;;;;;5080794;28;20228;-84
2021/05/16 02:16:49;;;;;;;2.42;1.80;;;9.80;99.90;;;;;;5081075;28;20634;-84
2021/05/16 02:19:15;;;;;;;3.42;1.35;;;9.80;99.90;;;;;;5081243;28;20211;-85
2021/05/16 02:21:43;;;;;;;2.60;1.73;;;9.80;99.90;;;;;;5080453;28;20209;-85
2021/05/16 02:24:09;;;;;;;4.03;2.10;;;9.80;99.90;;;;;;5081948;28;20401;-84
2021/05/16 02:26:36;;;;;;;1.95;1.70;;;9.70;99.90;;;;;;5082936;28;20212;-85
2021/05/16 02:29:02;;;;;;;3.05;2.70;;;9.80;99.90;;;;;;5084943;28;20206;-84
2021/05/16 02:31:31;;;;;;;2.63;1.75;;;9.70;99.90;;;;;;5085414;28;20198;-85
2021/05/16 02:33:58;;;;;;;2.20;1.90;;;9.70;99.90;;;;;;5085784;28;20230;-84
2021/05/16 02:36:24;;;;;;;1.52;1.40;;;9.60;99.90;;;;;;5087382;28;20231;-84
2021/05/16 02:38:51;;;;;;;1.77;1.40;;;9.60;99.90;;;;;;5087108;28;20201;-85
2021/05/16 02:41:17;;;;;;;1.98;1.85;;;9.60;99.90;;;;;;5086665;28;20205;-84
2021/05/16 02:43:43;;;;;;;1.98;1.60;;;9.60;99.90;;;;;;5085928;28;20758;-84
2021/05/16 02:46:10;;;;;;;2.17;1.98;;;9.60;99.90;;;;;;5085524;28;20234;-84
2021/05/16 02:48:37;;;;;;;1.90;1.80;;;9.60;99.90;;;;;;5085770;28;20207;-84
2021/05/16 02:51:05;;;;;;;2.88;2.17;;;9.60;99.90;;;;;;5082845;28;20203;-84
2021/05/16 02:53:31;;;;;;;2.33;2.13;;;9.70;99.90;;;;;;5083089;28;20230;-84
2021/05/16 02:55:57;;;;;;;3.28;2.30;;;9.70;99.90;;;;;;5082632;28;20224;-84
2021/05/16 02:58:24;;;;;;;2.00;1.83;;;9.80;99.90;;;;;;5082814;28;20197;-84
2021/05/16 03:00:50;;;;;;;2.05;1.85;;;9.90;99.90;;;;;;5084174;28;20202;-84
2021/05/16 03:03:17;;;;;;;1.73;1.55;;;9.90;99.90;;;;;;5082906;28;20225;-85
2021/05/16 03:05:44;;;;;;;3.30;1.80;;;9.90;99.90;;;;;;5092756;28;20229;-84
2021/05/16 03:08:10;;;;;;;1.60;1.50;;;9.90;99.90;;;;;;5096014;28;20204;-83
2021/05/16 03:10:36;;;;;;;4.18;2.40;;;9.90;99.90;;;;;;5096935;28;20201;-83
2021/05/16 03:13:04;;;;;;;1.70;1.60;;;9.90;99.90;;;;;;5091856;28;20207;-85
2021/05/16 03:15:31;;;;;;;2.03;1.92;;;9.90;99.90;;;;;;5082479;28;20202;-84
2021/05/16 03:17:57;;;;;;;2.53;2.10;;;10.00;99.90;;;;;;5083627;28;20260;-84
2021/05/16 03:20:24;;;;;;;2.13;1.92;;;9.90;99.90;;;;;;5083442;28;20205;-85
2021/05/16 03:22:53;;;;;;;2.95;1.80;;;9.90;99.90;;;;;;5082809;28;20214;-85
2021/05/16 03:25:19;;;;;;;2.78;2.13;;;10.00;99.90;;;;;;5082916;28;20632;-85
2021/05/16 03:27:45;;;;;;;2.83;1.98;;;10.10;99.90;;;;;;5084656;28;20205;-84
2021/05/16 03:30:12;;;;;;;1.92;1.83;;;10.20;99.90;;;;;;5083973;28;20228;-84
2021/05/16 03:32:41;;;;;;;1.70;1.60;;;10.20;99.90;;;;;;5084559;28;20209;-84
2021/05/16 03:35:08;;;;;;;1.70;1.35;;;10.20;99.90;;;;;;5083848;28;20251;-84
2021/05/16 03:37:35;;;;;;;1.58;1.48;;;10.20;99.90;;;;;;5083989;28;20208;-84
2021/05/16 03:40:03;;;;;;;2.25;1.58;;;10.20;99.90;;;;;;5084177;28;20213;-84
2021/05/16 03:42:29;;;;;;;1.23;1.13;;;10.20;99.90;;;;;;5083926;28;20550;-85
2021/05/16 03:44:56;;;;;;;1.70;1.60;;;10.20;99.90;;;;;;5083819;28;20229;-84
2021/05/16 03:47:22;;;;;;;1.88;1.77;;;10.20;99.90;;;;;;5083862;28;20211;-84
2021/05/16 03:49:49;;;;;;;1.75;1.65;;;10.20;99.90;;;;;;5084509;28;20206;-84
2021/05/16 03:52:19;;;;;;;1.63;1.53;;;10.20;99.90;;;;;;5083485;28;20263;-84
2021/05/16 03:54:48;;;;;;;2.30;1.25;;;10.20;99.90;;;;;;5084261;28;20562;-84
2021/05/16 03:57:16;;;;;;;1.42;1.30;;;10.20;99.90;;;;;;5083874;28;20209;-84
2021/05/16 03:59:42;;;;;;;5.33;1.37;;;10.20;99.90;;;;;;5083543;28;20214;-84
2021/05/16 04:02:09;;;;;;;3.08;1.63;;;10.20;99.90;;;;;;5082748;28;20445;-85
2021/05/16 04:04:35;;;;;;;1.98;1.42;;;10.20;99.90;;;;;;5083559;28;20227;-84
2021/05/16 04:07:02;;;;;;;1.70;1.42;;;10.20;99.90;;;;;;5084325;28;20237;-83
2021/05/16 04:09:28;;;;;;;1.42;1.30;;;10.20;99.90;;;;;;5084042;28;20214;-84
2021/05/16 04:11:54;;;;;;;3.08;1.90;;;10.20;99.90;;;;;;5083667;28;20207;-85
2021/05/16 04:14:23;;;;;;;3.00;2.08;;;10.30;99.90;;;;;;5084064;28;20226;-85
2021/05/16 04:16:49;;;;;;;2.90;1.60;;;10.30;99.90;;;;;;5084894;28;20208;-85
2021/05/16 04:19:16;;;;;;;3.07;1.60;;;10.20;99.90;;;;;;5086141;28;20449;-84
2021/05/16 04:21:43;;;;;;;3.72;1.35;;;10.20;99.90;;;;;;5087905;28;20451;-85
2021/05/16 04:24:10;;;;;;;1.10;1.10;;;10.20;99.90;;;;;;5087658;28;20230;-85
2021/05/16 04:26:38;;;;;;;1.37;1.27;;;10.20;99.90;;;;;;5088522;28;20450;-85
2021/05/16 04:29:05;;;;;;;0.90;0.90;;;10.30;99.90;;;;;;5088377;28;20949;-85
2021/05/16 04:31:33;;;;;;;1.70;1.30;;;10.30;99.90;;;;;;5086965;28;20511;-85
2021/05/16 04:34:01;;;;;;;2.33;1.48;;;10.30;99.90;;;;;;5082759;28;20474;-84
2021/05/16 04:36:29;;;;;;;2.90;1.10;;;10.30;99.90;;;;;;5080406;28;20218;-84
2021/05/16 04:38:55;;;;;;;1.73;1.15;;;10.30;99.90;;;;;;5081556;28;20460;-84
2021/05/16 04:41:22;;;;;;;3.80;1.13;;;10.30;99.90;;;;;;5080295;28;20206;-84
2021/05/16 04:43:48;;;;;;;1.20;1.00;;;10.30;99.90;;;;;;5081126;28;20229;-83
2021/05/16 04:46:14;;;;;;;1.20;1.10;;;10.20;99.90;;;;;;5080799;28;20237;-84
2021/05/16 04:48:42;;;;;;;1.90;1.55;;;10.30;99.90;;;;;;5080499;28;20462;-84
2021/05/16 04:51:08;;;;;;;1.33;1.00;;;10.30;99.90;;;;;;5080818;28;20267;-84
2021/05/16 04:53:36;;;;;;;1.90;1.30;;;10.30;99.90;;;;;;5080596;28;21038;-84
2021/05/16 04:56:02;;;;;;;1.40;1.00;;;10.30;99.90;;;;;;5080744;28;20210;-84
2021/05/16 04:58:29;;;;;;;1.75;1.17;;;10.30;99.90;;;;;;5080443;28;20251;-83
2021/05/16 05:00:55;;;;;;;2.70;1.58;;;10.30;99.90;;;;;;5080893;28;20210;-84
2021/05/16 05:03:23;;;;;;;1.35;1.05;;;10.30;99.90;;;;;;5080774;28;20592;-84
2021/05/16 05:05:52;;;;;;;1.13;1.10;;;10.30;99.90;;;;;;5080722;28;20226;-84
2021/05/16 05:08:18;;;;;;;1.17;0.90;;;10.30;99.90;;;;;;5080564;28;20212;-84
2021/05/16 05:10:45;;;;;;;1.20;0.90;;;10.30;99.90;;;;;;5080878;28;20263;-83
2021/05/16 05:13:11;;;;;;;1.77;0.90;;;10.30;99.90;;;;;;5079814;28;20226;-83
2021/05/16 05:15:37;;;;;;;2.03;1.00;;;10.30;99.90;;;;;;5080287;28;20444;-84
2021/05/16 05:18:03;;;;;;;1.38;0.77;;;10.30;99.90;;;;;;5080433;28;20206;-84
2021/05/16 05:20:30;;;;;;;1.20;0.82;;;10.30;99.90;;;;;;5079881;28;20206;-84
2021/05/16 05:22:57;;;;;;;1.05;0.80;;;10.30;99.90;;;;;;5079618;28;20302;-83
2021/05/16 05:25:24;;;;;;;1.20;0.95;;;10.30;99.90;;;;;;5079981;28;20227;-83
2021/05/16 05:27:50;;;;;;;1.50;1.40;;;10.40;99.90;;;;;;5080528;28;20282;-84
2021/05/16 05:30:19;;;;;;;1.20;1.05;;;10.40;99.90;;;;;;5078912;28;20207;-84
2021/05/16 05:32:45;;;;;;;1.70;1.00;;;10.40;99.90;;;;;;5079678;28;20214;-83
2021/05/16 05:35:11;;;;;;;1.05;1.05;;;10.50;99.90;;;;;;5079177;28;20461;-83
2021/05/16 05:37:38;;;;;;;0.97;0.90;;;10.50;99.90;;;;;;5079625;28;20210;-83
2021/05/16 05:40:06;;;;;;;2.40;2.20;;;10.60;99.90;;;;;;5079486;28;20452;-83
2021/05/16 05:42:33;;;;;;;1.77;0.77;;;10.70;99.90;;;;;;5079290;28;20515;-84
2021/05/16 05:44:59;;;;;;;1.45;0.90;;;10.70;99.90;;;;;;5079363;28;20227;-82
2021/05/16 05:47:25;;;;;;;0.73;0.73;;;10.80;99.90;;;;;;5079495;28;20886;-83
2021/05/16 05:49:52;;;;;;;0.95;0.80;;;10.90;99.90;;;;;;5079699;28;20215;-84
2021/05/16 05:52:18;;;;;;;0.90;0.90;;;10.90;99.90;;;;;;5079916;28;20669;-84
2021/05/16 05:54:47;;;;;;;1.67;1.00;;;11.00;99.90;;;;;;5079552;28;20477;-84
2021/05/16 05:57:14;;;;;;;2.73;1.30;;;11.00;99.90;;;;;;5079738;28;20539;-83
2021/05/16 05:59:40;;;;;;;1.87;1.27;;;11.00;99.90;;;;;;5079996;28;20460;-84
2021/05/16 06:02:06;;;;;;;2.87;1.10;;;10.90;99.90;;;;;;5079174;28;20456;-83
2021/05/16 06:04:32;;;;;;;1.63;0.83;;;11.00;99.90;;;;;;5079140;28;20542;-84
2021/05/16 06:06:59;;;;;;;1.27;0.93;;;11.10;99.90;;;;;;5079558;28;20827;-83
2021/05/16 06:09:25;;;;;;;1.10;1.00;;;11.10;99.90;;;;;;5078764;28;20449;-83
2021/05/16 06:11:51;;;;;;;1.43;0.90;;;11.10;99.90;;;;;;5078626;28;20454;-84
2021/05/16 06:14:18;;;;;;;1.30;1.20;;;11.00;99.90;;;;;;5078681;28;20473;-83
2021/05/16 06:16:44;;;;;;;1.20;1.10;;;11.00;99.90;;;;;;5078745;28;20252;-84
2021/05/16 06:19:11;;;;;;;2.53;0.90;;;11.10;99.90;;;;;;5078975;28;20457;-83
2021/05/16 06:21:37;;;;;;;1.13;1.00;;;11.10;99.90;;;;;;5079047;28;20460;-83
2021/05/16 06:24:06;;;;;;;1.37;0.83;;;11.20;99.90;;;;;;5078596;28;20637;-84
2021/05/16 06:26:36;;;;;;;1.00;1.00;;;11.20;99.90;;;;;;5078155;28;20494;-83
2021/05/16 06:29:02;;;;;;;1.07;0.93;;;11.20;99.90;;;;;;5078221;28;20461;-83
2021/05/16 06:31:29;;;;;;;1.37;1.00;;;11.30;99.90;;;;;;5078044;28;20480;-83
2021/05/16 06:33:56;;;;;;;1.83;0.90;;;11.40;99.90;;;;;;5078353;28;20509;-84
2021/05/16 06:36:22;;;;;;;0.70;0.70;;;11.40;99.90;;;;;;5077834;28;20450;-83
2021/05/16 06:38:48;;;;;;;0.93;0.93;;;11.40;99.90;;;;;;5078436;28;20442;-83
2021/05/16 06:41:14;;;;;;;1.67;0.80;;;11.40;99.90;;;;;;5077259;28;20206;-84
2021/05/16 06:43:41;;;;;;;0.80;0.80;;;11.50;99.90;;;;;;5077658;28;20484;-84
2021/05/16 06:46:07;;;;;;;0.90;0.90;;;11.60;99.90;;;;;;5086156;28;20483;-85
2021/05/16 06:48:37;;;;;;;1.70;1.60;;;11.70;99.90;;;;;;5085976;28;20446;-84
2021/05/16 06:51:06;;;;;;;0.70;0.70;;;11.80;99.90;;;;;;5081299;28;21083;-84
2021/05/16 06:53:33;;;;;;;1.70;1.60;;;11.90;99.90;;;;;;5083544;28;20815;-85
2021/05/16 06:56:00;;;;;;;0.90;0.77;;;12.10;99.90;;;;;;5089481;28;20449;-85
2021/05/16 06:58:26;;;;;;;1.43;1.07;;;12.30;99.90;;;;;;5101853;28;20463;-85
2021/05/16 07:00:52;;;;;;;1.30;0.80;;;12.50;99.90;;;;;;5102567;28;20929;-83
2021/05/16 07:03:18;;;;;;;1.70;0.80;;;12.70;99.90;;;;;;5101431;28;20470;-83
2021/05/16 07:05:46;;;;;;;1.10;0.80;;;12.90;99.90;;;;;;5102414;28;20482;-84
2021/05/16 07:08:12;;;;;;;1.37;0.80;;;13.00;99.90;;;;;;5102286;28;20456;-85
2021/05/16 07:10:38;;;;;;;0.97;0.87;;;13.00;99.90;;;;;;5102715;28;20447;-82
2021/05/16 07:13:05;;;;;;;0.57;0.57;;;13.10;99.90;;;;;;5102553;28;20557;-85
2021/05/16 07:15:33;;;;;;;2.00;0.97;;;13.10;99.90;;;;;;5102597;28;20958;-83
2021/05/16 07:18:01;;;;;;;0.53;0.53;;;13.20;99.90;;;;;;5101811;28;20450;-85
2021/05/16 07:20:27;;;;;;;1.70;1.60;;;13.30;99.90;;;;;;5101911;28;20450;-85
2021/05/16 07:22:54;;;;;;;4.10;0.80;;;13.50;99.90;;;;;;5082946;28;543525;-85
2021/05/16 07:25:20;;;;;;;0.90;0.57;;;13.50;99.90;;;;;;5102228;28;20927;-85
2021/05/16 07:27:48;;;;;;;0.67;0.67;;;13.60;99.90;;;;;;5102388;28;20453;-83
2021/05/16 07:30:15;;;;;;;1.43;0.80;;;13.70;99.90;;;;;;5101601;28;20491;-85
2021/05/16 07:32:42;;;;;;;4.50;0.97;;;13.60;99.90;;;;;;5101442;28;20866;-85
2021/05/16 07:35:10;;;;;;;1.27;0.77;;;13.60;99.90;;;;;;5102756;28;20465;-85
2021/05/16 07:37:37;;;;;;;1.03;0.93;;;13.60;99.90;;;;;;5102454;28;20446;-85
2021/05/16 07:40:06;;;;;;;0.97;0.80;;;13.60;99.90;;;;;;5102618;28;20454;-83
2021/05/16 07:42:32;;;;;;;2.10;0.80;;;13.70;99.90;;;;;;5102820;28;20449;-84
2021/05/16 07:44:58;;;;;;;0.87;0.87;;;13.70;99.90;;;;;;5102116;28;20509;-84
2021/05/16 07:47:25;;;;;;;1.60;0.60;;;13.80;99.90;;;;;;5103215;28;21016;-85
2021/05/16 07:49:51;;;;;;;1.07;0.90;;;13.90;99.90;;;;;;5103368;28;20443;-85
2021/05/16 07:52:17;;;;;;;1.90;1.33;;;13.80;99.90;;;;;;5102672;28;20438;-82
2021/05/16 07:54:43;;;;;;;2.70;1.00;;;13.80;99.90;;;;;;5103834;28;20477;-84
2021/05/16 07:57:10;;;;;;;1.03;1.03;;;14.00;99.90;;;;;;5106149;28;20503;-85
2021/05/16 07:59:38;;;;;;;1.47;0.80;;;14.10;99.90;;;;;;5106921;28;20453;-85
2021/05/16 08:02:05;;;;;;;1.80;0.90;;;14.20;99.90;;;;;;5106236;28;20499;-84
2021/05/16 08:04:31;;;;;;;1.97;1.10;;;14.30;99.50;;;;;;5105431;28;20473;-84
2021/05/16 08:06:58;;;;;;;1.20;0.80;;;14.40;99.40;;;;;;5105797;28;20466;-82
2021/05/16 08:09:25;;;;;;;1.63;0.83;;;14.40;99.40;;;;;;5106250;28;20461;-85
2021/05/16 08:11:54;;;;;;;3.40;2.77;;;14.50;99.90;;;;;;5106563;28;20457;-84
2021/05/16 08:14:21;;;;;;;1.43;1.10;;;14.50;99.90;;;;;;5105545;28;20840;-84
2021/05/16 08:16:48;;;;;;;2.87;1.60;;;14.30;99.90;;;;;;5107218;28;20453;-82
2021/05/16 08:19:14;;;;;;;3.90;1.27;;;13.90;99.90;;;;;;5109420;28;20443;-83
2021/05/16 08:21:42;;;;;;;2.80;1.33;;;13.50;99.90;;;;;;5109102;28;20457;-82
2021/05/16 08:24:09;;;;;;;4.53;1.90;;;13.10;99.90;;;;;;5109761;28;20473;-81
2021/05/16 08:26:35;;;;;;;5.03;1.43;;;12.80;99.90;;;;;;5109674;28;20491;-84
2021/05/16 08:29:03;;;;;;;1.80;1.20;;;12.60;99.90;;;;;;5109562;28;20445;-82
2021/05/16 08:31:35;;;;;;;1.80;1.20;;;12.60;99.90;;;;;;5109022;28;20454;-84
2021/05/16 08:34:01;;;;;;;3.90;1.20;;;12.60;99.90;;;;;;5109437;28;20822;-84
2021/05/16 08:36:30;;;;;;;2.00;1.50;;;12.60;99.90;;;;;;5107895;28;20944;-84
2021/05/16 08:38:56;;;;;;;1.17;1.07;;;12.50;99.90;;;;;;5106520;28;20456;-84
2021/05/16 08:41:22;;;;;;;1.93;1.20;;;12.30;99.90;;;;;;5116196;28;20456;-79
2021/05/16 08:43:49;;;;;;;1.90;1.40;;;12.50;99.90;;;;;;5119195;28;20471;-82
2021/05/16 08:46:15;;;;;;;1.70;1.03;;;12.60;99.90;;;;;;5119279;28;20541;-80
2021/05/16 08:48:42;;;;;;;2.23;1.33;;;12.70;99.90;;;;;;5114005;28;20552;-85
2021/05/16 08:51:10;;;;;;;1.50;1.07;;;12.80;99.90;;;;;;5106358;28;20450;-85
2021/05/16 08:53:38;;;;;;;4.63;1.27;;;12.90;99.90;;;;;;5106471;28;20519;-85
2021/05/16 08:56:06;;;;;;;0.93;0.93;;;13.00;99.90;;;;;;5106107;28;20442;-85
2021/05/16 08:58:32;;;;;;;3.70;1.40;;;13.10;99.90;;;;;;5105804;28;20503;-85
2021/05/16 09:00:59;;;;;;;1.83;1.40;;;13.20;99.90;;;;;;5105034;28;20457;-84
2021/05/16 09:03:26;;;;;;;3.10;2.37;;;13.50;99.90;;;;;;5105021;28;20527;-85
2021/05/16 09:05:54;;;;;;;1.70;1.60;;;13.70;99.90;;;;;;5104436;28;20493;-85
2021/05/16 09:08:22;;;;;;;1.40;1.30;;;14.00;99.60;;;;;;5103802;28;20496;-85
2021/05/16 09:10:52;;;;;;;2.27;1.30;;;14.20;99.40;;;;;;5104403;28;20457;-85
2021/05/16 09:13:21;;;;;;;2.07;1.57;;;14.20;99.30;;;;;;5103565;28;20470;-85
2021/05/16 09:15:59;;;;;;;2.13;1.00;;;14.30;99.40;;;;;;5100794;28;20454;-86
2021/05/16 09:18:36;;;;;;;2.30;0.90;;;14.40;98.30;;;;;;5102723;28;20447;-84
2021/05/16 09:21:22;;;;;;;2.17;1.27;;;14.40;97.10;;;;;;5103328;28;20556;-83
2021/05/16 09:23:50;;;;;;;1.50;1.07;;;14.50;97.10;;;;;;5103430;28;20485;-86
2021/05/16 09:26:16;;;;;;;2.43;1.10;;;14.50;97.70;;;;;;5102815;28;20493;-86
2021/05/16 09:28:42;;;;;;;1.43;0.80;;;14.50;97.70;;;;;;5102304;28;20812;-86
2021/05/16 09:31:08;;;;;;;1.87;1.30;;;14.70;97.70;;;;;;5105374;28;20442;-85
2021/05/16 09:33:35;;;;;;;3.93;1.77;;;14.90;96.70;;;;;;5105661;28;20831;-85
2021/05/16 09:36:05;;;;;;;1.83;1.30;;;15.00;96.70;;;;;;5104393;28;20442;-83
2021/05/16 09:38:35;;;;;;;3.90;1.40;;;15.10;95.30;;;;;;5086721;28;20428;-82
2021/05/16 09:41:03;;;;;;;2.60;1.20;;;15.30;94.20;;;;;;5083580;28;20477;-83
2021/05/16 09:43:31;;;;;;;4.07;1.33;;;15.40;94.90;;;;;;5083755;28;20462;-83
2021/05/16 09:46:01;;;;;;;2.93;1.47;;;15.50;94.70;;;;;;5085361;28;20506;-86
2021/05/16 09:48:37;;;;;;;2.47;1.20;;;15.70;94.80;;;;;;5083446;28;20501;-85
2021/05/16 09:51:15;;;;;;;2.63;1.60;;;15.80;93.80;;;;;;5083051;28;20447;-86
2021/05/16 09:54:07;;;;;;;2.03;1.30;;;15.80;94.10;;;;;;5085664;28;20478;-84
2021/05/16 09:56:37;;;;;;;2.27;1.20;;;15.80;94.00;;;;;;5085557;28;20431;-85
2021/05/16 09:59:05;;;;;;;3.60;1.10;;;15.80;93.40;;;;;;5093114;28;21011;-85
2021/05/16 10:01:32;;;;;;;2.80;1.40;;;16.10;93.20;;;;;;5088126;28;20445;-83
2021/05/16 10:03:59;;;;;;;2.00;1.60;;;16.20;91.50;;;;;;5092624;28;20457;-84
2021/05/16 10:06:27;;;;;;;1.60;1.50;;;16.40;92.10;;;;;;5089292;28;20541;-85
2021/05/16 10:08:58;;;;;;;1.73;1.13;;;16.50;91.90;;;;;;5084671;28;20444;-85
2021/05/16 10:11:27;;;;;;;3.10;1.30;;;16.80;92.20;;;;;;5081733;28;20501;-85
2021/05/16 10:14:03;;;;;;;6.70;1.60;;;17.10;90.60;;;;;;5086269;28;20463;-85
2021/05/16 10:16:47;;;;;;;5.30;1.50;;;17.30;88.60;;;;;;5084964;28;20451;-86
2021/05/16 10:19:17;;;;;;;1.23;1.13;;;17.30;90.00;;;;;;5087023;28;20432;-86
2021/05/16 10:21:43;;;;;;;2.73;1.00;;;17.20;87.80;;;;;;5085063;28;20470;-84
2021/05/16 10:24:12;;;;;;;1.70;0.90;;;17.10;84.80;;;;;;5086889;28;20529;-84
2021/05/16 10:26:48;;;;;;;2.27;1.90;;;17.10;86.40;;;;;;5087565;28;20476;-84
2021/05/16 10:30:23;;;;;;;2.70;0.80;;;17.10;85.80;;;;;;5086762;28;20460;-84
2021/05/16 10:33:14;;;;;;;;;;;;;;;;;;;;;
2021/05/16 10:36:21;;;;;;;2.20;1.40;;;17.80;87.00;;;;;;5019069;28;20535;-83
2021/05/16 10:39:28;;;;;;;1.30;0.93;;;18.20;84.50;;;;;;5083216;28;20868;-85
2021/05/16 10:42:14;;;;;;;4.20;1.30;;;18.50;81.90;;;;;;4982887;28;20920;-84
2021/05/16 10:45:04;;;;;;;3.10;1.43;;;18.70;80.00;;;;;;5068150;28;20505;-86
2021/05/16 10:47:52;;;;;;;1.83;0.90;;;18.60;79.10;;;;;;5083301;28;20491;-84
2021/05/16 10:50:40;;;;;;;2.27;1.40;;;18.40;78.20;;;;;;5081295;28;20437;-82
2021/05/16 10:53:10;;;;;;;2.40;1.10;;;18.20;79.00;;;;;;5081974;28;20453;-85
2021/05/16 10:55:37;;;;;;;1.27;0.87;;;18.00;80.20;;;;;;5082894;28;20441;-86
2021/05/16 10:58:06;;;;;;;1.57;1.00;;;17.70;80.70;;;;;;5080781;28;20459;-85
2021/05/16 11:00:35;;;;;;;2.80;1.40;;;17.80;81.00;;;;;;5080457;28;20536;-86
2021/05/16 11:03:07;;;;;;;1.70;1.30;;;17.70;79.90;;;;;;5081406;28;20495;-85
2021/05/16 11:05:53;;;;;;;3.13;1.20;;;18.00;78.90;;;;;;5081125;28;20625;-82
2021/05/16 11:09:13;;;;;;;1.90;0.90;;;18.50;80.90;;;;;;5084844;28;20456;-84
2021/05/16 11:11:56;;;;;;;2.00;1.33;;;18.70;79.10;;;;;;5084262;28;20462;-83
2021/05/16 11:22:34;;;;;;;0.90;0.90;;;21.00;73.60;;;;;;5288695;22;20530;-84
2021/05/16 11:25:23;;;;;;;2.27;0.63;;;21.60;69.70;;;;;;5094367;28;20558;-82
2021/05/16 11:32:02;;;;;;;2.30;1.00;;;21.60;62.60;;;;;;5013446;28;20509;-82
2021/05/16 11:34:29;;;;;;;3.10;1.00;;;21.80;63.80;;;;;;5102891;28;20490;-82
2021/05/16 11:54:48;;;;;;;1.57;1.47;;;22.60;61.50;;;;;;4874382;29;21092;-84
2021/05/16 11:57:24;;;;;;;2.23;1.13;;;22.90;60.30;;;;;;4887266;29;20467;-86
2021/05/16 12:27:31;;;;;;;1.70;1.07;;;23.10;57.10;;;;;;4916538;28;20481;-84
2021/05/16 12:44:11;;;;;;;1.13;1.00;;;21.20;59.30;;;;;;4911787;29;20490;-84
2021/05/16 12:47:04;;;;;;;1.27;1.00;;;20.90;61.40;;;;;;4902451;29;20471;-85
2021/05/16 12:49:57;;;;;;;;;;;;;;;;;;;;;
2021/05/16 12:53:10;;;;;;;2.00;1.20;;;20.20;60.10;;;;;;5058548;28;20479;-84
2021/05/16 12:56:03;;;;;;;1.37;1.03;;;19.50;61.80;;;;;;4961997;28;20511;-85
2021/05/16 13:02:40;;;;;;;;;;;;;;;;;;;;;
2021/05/16 13:05:28;;;;;;;2.57;1.23;;;19.20;64.70;;;;;;5069414;28;20562;-84
2021/05/16 13:08:02;;;;;;;1.27;1.10;;;19.20;63.90;;;;;;5107679;28;20457;-84
2021/05/16 13:10:51;;;;;;;1.67;1.27;;;19.20;65.10;;;;;;5108251;28;20449;-84
2021/05/16 13:13:50;;;;;;;;;;;;;;;;;;;;;
2021/05/16 13:16:30;;;;;;;1.30;1.00;;;19.20;62.40;;;;;;5102488;28;20545;-84
2021/05/16 13:19:16;;;;;;;;;;;;;;;;;;;;;
2021/05/16 13:21:46;;;;;;;0.90;0.90;;;19.20;61.80;;;;;;5107043;28;20485;-84
2021/05/16 13:24:20;;;;;;;1.40;0.83;;;19.20;60.50;;;;;;5108360;28;20462;-83
2021/05/16 13:27:23;;;;;;;4.73;1.17;;;19.10;60.40;;;;;;5108652;28;20513;-84
2021/05/16 13:30:01;;;;;;;0.67;0.60;;;19.10;61.10;;;;;;5100279;28;20472;-82
2021/05/16 13:32:28;;;;;;;2.83;1.13;;;19.10;62.80;;;;;;5108138;28;20441;-84
2021/05/16 13:34:57;;;;;;;2.37;0.83;;;19.10;62.00;;;;;;5107021;28;20477;-84
2021/05/16 13:37:26;;;;;;;1.27;0.80;;;19.10;62.10;;;;;;5107777;28;20950;-84
2021/05/16 13:39:52;;;;;;;0.90;0.90;;;19.10;62.80;;;;;;5108756;28;20449;-81
2021/05/16 13:42:18;;;;;;;1.57;0.90;;;19.10;62.40;;;;;;5107531;28;20532;-84
2021/05/16 13:44:44;;;;;;;3.43;0.90;;;19.30;63.10;;;;;;5107078;28;20475;-82
2021/05/16 13:47:11;;;;;;;1.00;0.90;;;19.50;62.20;;;;;;5107098;28;20450;-83
2021/05/16 13:49:37;;;;;;;1.83;0.60;;;19.80;62.30;;;;;;5106338;28;20454;-83
2021/05/16 13:52:03;;;;;;;0.70;0.60;;;19.70;61.10;;;;;;5105730;28;20510;-85
2021/05/16 13:54:31;;;;;;;1.57;0.70;;;19.50;60.80;;;;;;5107275;28;20603;-84
2021/05/16 13:56:58;;;;;;;0.70;0.70;;;19.30;61.70;;;;;;5107178;28;20515;-85
2021/05/16 13:59:25;;;;;;;0.77;0.77;;;19.10;63.00;;;;;;5106977;28;20451;-85
2021/05/16 14:01:52;;;;;;;1.77;1.13;;;19.10;63.80;;;;;;5106041;28;20445;-85
2021/05/16 14:04:18;;;;;;;3.67;0.87;;;19.20;64.10;;;;;;5114277;27;20457;-82
2021/05/16 14:06:44;;;;;;;0.90;0.90;;;19.20;64.80;;;;;;5116887;28;20434;-80
2021/05/16 14:09:13;;;;;;;1.27;0.87;;;19.20;63.70;;;;;;5117096;28;20505;-80
2021/05/16 14:11:42;;;;;;;4.60;1.23;;;19.20;64.10;;;;;;5108976;28;20450;-85
2021/05/16 14:14:09;;;;;;;1.27;1.17;;;19.20;64.80;;;;;;5106501;28;20834;-82
2021/05/16 14:16:36;;;;;;;2.07;1.00;;;19.10;65.00;;;;;;5105946;28;20489;-84
2021/05/16 14:19:04;;;;;;;1.73;0.90;;;18.90;65.30;;;;;;5106432;28;20457;-80
2021/05/16 14:21:30;;;;;;;0.80;0.80;;;18.60;66.40;;;;;;5105686;28;20476;-82